Time,TemperatureF,DewpointF,PressureIn,WindDirection,WindDirectionDegrees,WindSpeedMPH,WindSpeedGustMPH,Humidity,HourlyPrecipIn,Conditions,Clouds,dailyrainin,SoftwareType,DateUTC
2013-12-27 00:22:00,29.0,19.0,30.15,SSW,199,1.0,5.0,66,0.00,,,0.01,,2013-12-27 06:22:00,
2013-12-27 00:43:00,29.0,19.0,30.16,WSW,242,2.0,7.0,67,0.00,,,0.01,,2013-12-27 06:43:00,
2013-12-27 00:52:00,28.0,18.0,30.15,SSW,194,3.0,9.0,67,0.00,,,0.01,,2013-12-27 06:52:00,
2013-12-27 01:12:00,28.0,19.0,30.13,SSE,168,2.0,10.0,68,0.00,,,0.01,,2013-12-27 07:12:00,
2013-12-27 01:22:00,27.0,18.0,30.12,South,180,2.0,7.0,68,0.00,,,0.01,,2013-12-27 07:22:00,
2013-12-27 01:42:00,27.0,18.0,30.11,South,189,5.0,10.0,69,0.00,,,0.01,,2013-12-27 07:42:00,
2013-12-27 01:52:00,27.0,18.0,30.11,SSW,198,6.0,11.0,69,0.00,,,0.01,,2013-12-27 07:52:00,
2013-12-27 02:22:00,27.0,18.0,30.10,SE,130,3.0,10.0,67,0.00,,,0.01,,2013-12-27 08:22:00,
2013-12-27 02:42:00,26.0,16.0,30.09,South,178,3.0,6.0,66,0.00,,,0.01,,2013-12-27 08:42:00,
2013-12-27 02:52:00,28.0,18.0,30.08,SSW,198,6.0,11.0,66,0.00,,,0.01,,2013-12-27 08:52:00,
2013-12-27 03:11:00,28.0,18.0,30.09,South,184,2.0,8.0,65,0.00,,,0.01,,2013-12-27 09:11:00,
2013-12-27 03:21:00,27.0,17.0,30.09,West,278,4.0,8.0,65,0.00,,,0.01,,2013-12-27 09:21:00,
2013-12-27 03:43:00,27.0,16.0,30.08,WSW,249,9.0,15.0,64,0.00,,,0.01,,2013-12-27 09:43:00,
2013-12-27 03:53:00,26.0,16.0,30.07,WSW,242,3.0,8.0,65,0.00,,,0.01,,2013-12-27 09:53:00,
2013-12-27 04:23:00,29.0,18.0,30.04,SW,232,8.0,14.0,62,0.00,,,0.01,,2013-12-27 10:23:00,
2013-12-27 04:42:00,32.0,19.0,30.03,SW,226,6.0,15.0,58,0.00,,,0.01,,2013-12-27 10:42:00,
2013-12-27 04:52:00,32.0,18.0,30.03,SSE,149,4.0,20.0,56,0.00,,,0.01,,2013-12-27 10:52:00,
2013-12-27 05:12:00,32.0,19.0,30.02,SSW,196,5.0,11.0,58,0.00,,,0.01,,2013-12-27 11:12:00,
2013-12-27 05:22:00,33.0,19.0,29.99,SW,229,10.0,18.0,57,0.00,,,0.01,,2013-12-27 11:22:00,
2013-12-27 05:43:00,34.0,19.0,29.98,SW,229,9.0,19.0,54,0.00,,,0.01,,2013-12-27 11:43:00,
2013-12-27 05:53:00,34.0,19.0,29.97,SSW,192,9.0,19.0,53,0.00,,,0.01,,2013-12-27 11:53:00,
2013-12-27 06:12:00,34.0,18.0,29.97,SW,236,13.0,20.0,52,0.00,,,0.01,,2013-12-27 12:12:00,
2013-12-27 06:22:00,34.0,18.0,29.95,West,266,14.0,24.0,52,0.00,,,0.01,,2013-12-27 12:22:00,
2013-12-27 06:42:00,35.0,20.0,29.94,WSW,246,16.0,25.0,53,0.00,,,0.01,,2013-12-27 12:42:00,
2013-12-27 06:52:00,34.0,20.0,29.93,WNW,286,15.0,27.0,56,0.00,,,0.01,,2013-12-27 12:52:00,
2013-12-27 07:11:00,34.0,20.0,29.92,SW,236,16.0,31.0,57,0.00,,,0.01,,2013-12-27 13:11:00,
2013-12-27 07:22:00,34.0,20.0,29.91,SW,219,15.0,25.0,56,0.00,,,0.01,,2013-12-27 13:22:00,
2013-12-27 07:42:00,35.0,20.0,29.91,SW,219,14.0,22.0,54,0.00,,,0.01,,2013-12-27 13:42:00,
2013-12-27 07:52:00,34.0,20.0,29.91,SW,233,14.0,23.0,55,0.00,,,0.01,,2013-12-27 13:52:00,
2013-12-27 08:12:00,34.0,20.0,29.93,WSW,257,13.0,22.0,56,0.00,,,0.01,,2013-12-27 14:12:00,
2013-12-27 10:43:00,38.0,21.0,29.93,West,275,12.0,16.0,50,0.00,,,0.01,,2013-12-27 16:43:00,
2013-12-27 10:53:00,38.0,21.0,29.93,West,262,14.0,19.0,50,0.00,,,0.01,,2013-12-27 16:53:00,
2013-12-27 11:22:00,39.0,21.0,29.95,West,261,9.0,14.0,49,0.00,,,0.01,,2013-12-27 17:22:00,
2013-12-27 11:52:00,39.0,22.0,29.95,West,259,11.0,14.0,51,0.00,,,0.01,,2013-12-27 17:52:00,
2013-12-27 12:12:00,40.0,23.0,29.95,WSW,258,14.0,18.0,50,0.00,,,0.01,,2013-12-27 18:12:00,
2013-12-27 12:22:00,40.0,23.0,29.95,WSW,248,11.0,18.0,51,0.00,,,0.01,,2013-12-27 18:22:00,
2013-12-27 12:42:00,40.0,23.0,29.95,West,261,11.0,16.0,51,0.00,,,0.01,,2013-12-27 18:42:00,
2013-12-27 12:53:00,39.0,23.0,29.95,West,269,12.0,17.0,53,0.00,,,0.01,,2013-12-27 18:53:00,
2013-12-27 13:12:00,39.0,24.0,29.96,West,263,10.0,19.0,54,0.00,,,0.01,,2013-12-27 19:12:00,
2013-12-27 13:22:00,40.0,24.0,29.96,WSW,249,8.0,13.0,53,0.00,,,0.01,,2013-12-27 19:22:00,
2013-12-27 13:42:00,41.0,25.0,29.96,West,279,8.0,12.0,52,0.00,,,0.01,,2013-12-27 19:42:00,
2013-12-27 13:52:00,40.0,25.0,29.96,West,268,9.0,12.0,54,0.00,,,0.01,,2013-12-27 19:52:00,
2013-12-27 14:11:00,40.0,24.0,29.96,WNW,299,6.0,12.0,53,0.00,,,0.01,,2013-12-27 20:11:00,
2013-12-27 14:21:00,40.0,25.0,29.96,West,262,5.0,11.0,54,0.00,,,0.01,,2013-12-27 20:21:00,
2013-12-27 14:52:00,41.0,26.0,29.96,NW,305,2.0,7.0,54,0.00,,,0.01,,2013-12-27 20:52:00,
2013-12-27 15:11:00,41.0,26.0,29.97,WNW,285,3.0,8.0,54,0.00,,,0.01,,2013-12-27 21:11:00,
2013-12-27 15:22:00,41.0,26.0,29.98,NW,312,3.0,8.0,55,0.00,,,0.01,,2013-12-27 21:22:00,
2013-12-27 15:43:00,40.0,26.0,29.98,WSW,250,3.0,9.0,56,0.00,,,0.01,,2013-12-27 21:43:00,
2013-12-27 15:53:00,40.0,26.0,29.98,West,266,3.0,7.0,57,0.00,,,0.00,,2013-12-27 21:53:00,
2013-12-27 16:23:00,40.0,26.0,29.98,WSW,252,4.0,7.0,58,0.00,,,0.00,,2013-12-27 22:23:00,
2013-12-27 16:52:00,39.0,26.0,29.99,West,260,4.0,7.0,60,0.00,,,0.00,,2013-12-27 22:52:00,
2013-12-27 17:52:00,35.0,25.0,30.00,West,263,1.0,4.0,66,0.00,,,0.00,,2013-12-27 23:52:00,
2013-12-27 18:11:00,35.0,26.0,30.01,West,263,0.0,1.0,68,0.00,,,0.00,,2013-12-28 00:11:00,
2013-12-27 18:22:00,35.0,25.0,30.02,West,262,0.0,0.0,67,0.00,,,0.00,,2013-12-28 00:22:00,
2013-12-27 18:42:00,35.0,25.0,30.02,West,265,0.0,2.0,66,0.00,,,0.00,,2013-12-28 00:42:00,
2013-12-27 18:52:00,34.0,25.0,30.02,West,265,0.0,0.0,68,0.00,,,0.00,,2013-12-28 00:52:00,
2013-12-27 19:12:00,34.0,25.0,30.02,West,265,0.0,2.0,68,0.00,,,0.00,,2013-12-28 01:12:00,
2013-12-27 19:21:00,34.0,25.0,30.02,West,259,2.0,4.0,68,0.00,,,0.00,,2013-12-28 01:21:00,
2013-12-27 19:42:00,33.0,24.0,30.01,WSW,257,0.0,0.0,69,0.00,,,0.00,,2013-12-28 01:42:00,
2013-12-27 19:52:00,33.0,24.0,30.01,SW,231,1.0,2.0,69,0.00,,,0.00,,2013-12-28 01:52:00,
2013-12-27 20:12:00,33.0,24.0,30.02,SSW,213,2.0,4.0,69,0.00,,,0.00,,2013-12-28 02:12:00,
2013-12-27 20:21:00,33.0,23.0,30.02,WSW,237,1.0,6.0,67,0.00,,,0.00,,2013-12-28 02:21:00,
2013-12-27 20:42:00,33.0,23.0,30.02,WSW,248,3.0,5.0,67,0.00,,,0.00,,2013-12-28 02:42:00,
2013-12-27 20:52:00,32.0,22.0,30.01,WSW,247,1.0,5.0,67,0.00,,,0.00,,2013-12-28 02:52:00,
2013-12-27 21:12:00,33.0,24.0,30.00,WSW,246,3.0,5.0,68,0.00,,,0.00,,2013-12-28 03:12:00,
2013-12-27 21:22:00,32.0,22.0,30.00,WSW,246,1.0,5.0,67,0.00,,,0.00,,2013-12-28 03:22:00,
2013-12-27 21:43:00,32.0,23.0,30.00,WSW,246,3.0,7.0,68,0.00,,,0.00,,2013-12-28 03:43:00,
2013-12-27 21:53:00,32.0,22.0,30.00,SSW,211,2.0,5.0,67,0.00,,,0.00,,2013-12-28 03:53:00,
2013-12-27 22:22:00,31.0,22.0,29.97,SW,219,2.0,5.0,68,0.00,,,0.00,,2013-12-28 04:22:00,
2013-12-27 22:42:00,32.0,23.0,29.97,SW,219,1.0,5.0,68,0.00,,,0.00,,2013-12-28 04:42:00,
2013-12-27 22:52:00,32.0,23.0,29.96,SSW,199,3.0,8.0,68,0.00,,,0.00,,2013-12-28 04:52:00,
2013-12-27 23:12:00,32.0,23.0,29.95,South,172,2.0,7.0,68,0.00,,,0.00,,2013-12-28 05:12:00,
2013-12-27 23:22:00,32.0,23.0,29.95,SSW,194,1.0,5.0,69,0.00,,,0.00,,2013-12-28 05:22:00,
2013-12-27 23:43:00,30.0,20.0,29.95,SSE,157,2.0,4.0,65,0.00,,,0.00,,2013-12-28 05:43:00,
2013-12-27 23:52:00,30.0,20.0,29.95,SSE,157,2.0,4.0,65,0.00,,,0.00,,2013-12-28 05:52:00,